Time;durP1;ratioP1;P1;durP2;ratioP2;P2;SDS_P1;SDS_P2;PMS_P1;PMS_P2;Temp;Humidity;BMP_temperature;BMP_pressure;BME280_temperature;BME280_humidity;BME280_pressure;Samples;Min_cycle;Max_cycle;Signal;HPM_P1;HPM_P2
2021/10/17 00:01:27;;;;;;;4.43;2.38;;;;;;;20.40;42.77;101999.06;4992435;28;20279;-63
2021/10/17 00:03:52;;;;;;;5.57;2.28;;;;;;;20.39;42.71;101995.53;4993352;28;20034;-62
2021/10/17 00:06:26;;;;;;;4.82;2.25;;;;;;;20.37;42.91;101991.34;4992339;28;20058;-63
2021/10/17 00:08:52;;;;;;;4.65;2.05;;;;;;;20.36;42.89;101984.34;4993368;28;20056;-63
2021/10/17 00:11:17;;;;;;;5.27;2.20;;;;;;;20.34;42.80;101984.44;4992867;28;20390;-63
2021/10/17 00:13:42;;;;;;;5.22;2.10;;;;;;;20.32;42.74;101989.03;4992556;28;20276;-62
2021/10/17 00:16:08;;;;;;;4.03;1.80;;;;;;;20.29;42.91;101990.06;4992878;28;20038;-62
2021/10/17 00:18:33;;;;;;;4.38;2.20;;;;;;;20.29;43.02;101990.06;4993115;28;20031;-62
2021/10/17 00:20:59;;;;;;;5.78;2.05;;;;;;;20.28;42.97;101996.34;4992103;28;20478;-63
2021/10/17 00:23:24;;;;;;;4.97;2.10;;;;;;;20.28;42.94;102000.78;4993147;28;20386;-62
2021/10/17 00:25:49;;;;;;;4.38;2.20;;;;;;;20.26;42.91;101997.41;4993041;28;20027;-63
2021/10/17 00:28:15;;;;;;;4.72;1.90;;;;;;;20.24;42.81;101996.69;4991211;28;20487;-63
2021/10/17 00:30:40;;;;;;;4.90;1.83;;;;;;;20.22;42.95;101991.50;4994229;28;20470;-63
2021/10/17 00:33:08;;;;;;;5.20;2.10;;;;;;;20.21;43.01;101973.91;4996032;28;20287;-62
2021/10/17 00:35:35;;;;;;;5.15;2.10;;;;;;;20.20;42.76;101981.97;4996914;28;20066;-63
2021/10/17 00:38:01;;;;;;;4.80;2.17;;;;;;;20.17;42.85;101977.75;4996532;28;20038;-63
2021/10/17 00:40:26;;;;;;;4.47;2.20;;;;;;;20.16;42.91;101975.22;4996151;28;20370;-63
2021/10/17 00:42:52;;;;;;;4.90;2.50;;;;;;;20.15;42.87;101971.72;4996889;28;20076;-63
2021/10/17 00:45:20;;;;;;;5.25;2.28;;;;;;;20.15;42.97;101976.16;4996607;28;20490;-62
2021/10/17 00:47:48;;;;;;;4.30;2.08;;;;;;;20.14;42.93;101982.41;4995554;28;20384;-62
2021/10/17 00:50:14;;;;;;;5.00;2.40;;;;;;;20.12;42.82;101982.50;4996337;28;20022;-62
2021/10/17 00:52:43;;;;;;;5.25;2.30;;;;;;;20.11;43.04;101989.63;4996494;28;20411;-62
2021/10/17 00:55:13;;;;;;;4.88;2.13;;;;;;;20.11;42.88;101983.50;4995088;28;20046;-63
2021/10/17 00:57:40;;;;;;;4.43;2.00;;;;;;;20.10;42.81;101990.56;4996592;28;20080;-63
2021/10/17 01:00:06;;;;;;;4.68;2.05;;;;;;;20.09;42.94;101986.25;4996110;28;20027;-62
2021/10/17 01:02:32;;;;;;;4.13;1.90;;;;;;;20.09;42.74;101991.53;4995720;28;20030;-63
2021/10/17 01:04:59;;;;;;;5.13;2.78;;;;;;;20.08;42.90;101983.72;4995881;28;20030;-62
2021/10/17 01:07:28;;;;;;;4.43;2.30;;;;;;;20.08;42.70;101979.25;4996280;28;20034;-62
2021/10/17 01:09:54;;;;;;;4.63;2.20;;;;;;;20.07;42.75;101966.97;4995935;28;20034;-62
2021/10/17 01:12:19;;;;;;;4.22;2.20;;;;;;;20.07;42.69;101966.13;4995954;28;20034;-61
2021/10/17 01:14:45;;;;;;;4.05;1.98;;;;;;;20.04;42.64;101969.81;4996396;28;20026;-61
2021/10/17 01:17:13;;;;;;;3.85;2.05;;;;;;;20.03;42.73;101970.81;4995025;28;20359;-62
2021/10/17 01:19:39;;;;;;;5.53;2.30;;;;;;;20.02;42.62;101971.75;4996021;28;20058;-62
2021/10/17 01:22:04;;;;;;;4.22;2.08;;;;;;;20.01;42.81;101961.28;4995730;28;20497;-62
2021/10/17 01:24:29;;;;;;;6.03;2.45;;;;;;;20.00;42.68;101965.72;4995194;28;20022;-61
2021/10/17 01:26:55;;;;;;;5.03;2.20;;;;;;;19.99;42.86;101961.38;4996092;28;20022;-62
2021/10/17 01:29:20;;;;;;;5.78;2.35;;;;;;;20.00;42.68;101972.81;4994812;28;20118;-63
2021/10/17 01:31:53;;;;;;;5.20;2.50;;;;;;;19.98;42.67;101972.94;4995695;28;20454;-63
2021/10/17 01:34:20;;;;;;;5.20;2.22;;;;;;;19.97;42.59;101968.59;4995473;28;20065;-63
2021/10/17 01:36:46;;;;;;;4.68;2.13;;;;;;;19.96;42.60;101966.06;4994642;28;20410;-63
2021/10/17 01:39:18;;;;;;;5.47;2.33;;;;;;;19.96;42.81;101955.47;4995448;28;20162;-63
2021/10/17 01:41:43;;;;;;;4.40;2.17;;;;;;;19.93;42.72;101949.44;4994551;28;20026;-62
2021/10/17 01:44:15;;;;;;;4.82;2.08;;;;;;;19.92;42.63;101944.28;4994166;28;20027;-62
2021/10/17 01:46:40;;;;;;;5.40;2.40;;;;;;;19.91;42.55;101948.69;4995529;28;20018;-62
2021/10/17 01:49:10;;;;;;;6.28;2.15;;;;;;;19.90;42.74;101951.44;4994829;28;20030;-62
2021/10/17 01:51:36;;;;;;;6.15;2.20;;;;;;;19.89;42.58;101942.69;4994571;28;20053;-62
2021/10/17 01:54:03;;;;;;;4.38;2.10;;;;;;;19.89;42.70;101945.31;4994844;28;20474;-62
2021/10/17 01:56:29;;;;;;;4.93;2.33;;;;;;;19.86;42.67;101939.41;4995107;28;20406;-62
2021/10/17 01:58:54;;;;;;;4.70;1.92;;;;;;;19.86;42.60;101942.91;4994288;28;20018;-62
2021/10/17 02:01:19;;;;;;;4.90;2.20;;;;;;;19.86;42.66;101944.69;4994940;28;20034;-62
2021/10/17 02:03:45;;;;;;;3.63;1.83;;;;;;;19.85;42.63;101946.50;4994959;28;20744;-62
2021/10/17 02:06:10;;;;;;;4.83;2.10;;;;;;;19.85;42.59;101945.66;4993800;28;20034;-62
2021/10/17 02:08:35;;;;;;;4.28;2.20;;;;;;;19.84;42.75;101947.47;4995019;28;20300;-62
2021/10/17 02:11:01;;;;;;;4.88;2.10;;;;;;;19.83;42.55;101948.41;4994751;28;20032;-62
2021/10/17 02:13:26;;;;;;;4.28;2.17;;;;;;;19.82;42.76;101944.09;4994283;28;20033;-62
2021/10/17 02:15:51;;;;;;;5.15;2.28;;;;;;;19.81;42.46;101942.38;4994710;28;20022;-63
2021/10/17 02:18:17;;;;;;;5.65;2.58;;;;;;;19.79;42.60;101939.00;4994531;28;20037;-62
2021/10/17 02:20:42;;;;;;;4.95;2.22;;;;;;;19.79;42.56;101946.94;4993979;28;20109;-62
2021/10/17 02:23:26;;;;;;;5.13;2.40;;;;;;;19.78;42.51;101941.75;4994431;28;20537;-63
2021/10/17 02:25:51;;;;;;;5.63;2.20;;;;;;;19.78;42.51;101947.88;4993880;28;20431;-62
2021/10/17 02:28:16;;;;;;;5.03;2.15;;;;;;;19.77;42.38;101940.91;4994285;28;20121;-62
2021/10/17 02:30:42;;;;;;;4.77;2.23;;;;;;;19.76;42.28;101936.59;4994575;28;20073;-62
2021/10/17 02:33:07;;;;;;;4.32;2.10;;;;;;;19.77;42.60;101937.41;4993266;28;20061;-62
2021/10/17 02:35:32;;;;;;;5.43;2.42;;;;;;;19.74;42.38;101936.66;4993927;28;20057;-62
2021/10/17 02:37:58;;;;;;;6.30;2.30;;;;;;;19.73;42.50;101934.13;4993975;28;20451;-62
2021/10/17 02:40:23;;;;;;;4.68;2.13;;;;;;;19.73;42.39;101939.41;4993729;28;20031;-63
2021/10/17 02:42:51;;;;;;;5.30;2.60;;;;;;;19.71;42.59;101944.81;4994347;28;20034;-63
2021/10/17 02:45:17;;;;;;;5.28;2.70;;;;;;;19.70;42.36;101944.91;4994052;28;20034;-62
2021/10/17 02:47:42;;;;;;;4.97;2.30;;;;;;;19.69;42.50;101938.78;4993289;28;20382;-63
2021/10/17 02:50:08;;;;;;;4.95;2.33;;;;;;;19.68;42.30;101937.09;4993948;28;20031;-63
2021/10/17 02:52:33;;;;;;;4.55;2.15;;;;;;;19.67;42.36;101934.56;4994150;28;20045;-62
2021/10/17 02:54:59;;;;;;;5.55;2.22;;;;;;;19.66;42.57;101930.22;4992416;28;20050;-62
2021/10/17 02:57:24;;;;;;;4.60;2.08;;;;;;;19.65;42.50;101923.25;4994062;28;20022;-62
2021/10/17 02:59:50;;;;;;;6.78;2.30;;;;;;;19.64;42.46;101932.13;4994105;28;20037;-62
2021/10/17 03:02:15;;;;;;;5.80;2.20;;;;;;;19.63;42.41;101939.22;4992949;28;20541;-63
2021/10/17 03:04:41;;;;;;;6.60;2.38;;;;;;;19.63;42.51;101935.72;4994192;28;20544;-63
2021/10/17 03:07:06;;;;;;;4.63;2.50;;;;;;;19.61;42.39;101938.47;4993750;28;20417;-61
2021/10/17 03:09:31;;;;;;;5.30;2.22;;;;;;;19.60;42.18;101936.78;4992958;28;20061;-62
2021/10/17 03:11:57;;;;;;;4.50;2.30;;;;;;;19.58;42.50;101931.59;4993487;28;20031;-62
2021/10/17 03:14:28;;;;;;;4.70;2.17;;;;;;;19.58;42.30;101925.44;4993789;28;20034;-63
2021/10/17 03:16:53;;;;;;;4.22;2.22;;;;;;;19.56;42.30;101922.91;4992908;28;20087;-62
2021/10/17 03:19:19;;;;;;;6.20;2.70;;;;;;;19.57;42.57;101916.69;4993606;28;20038;-63
2021/10/17 03:21:47;;;;;;;4.43;1.97;;;;;;;19.55;42.55;101910.66;4993644;28;20368;-62
2021/10/17 03:24:12;;;;;;;5.63;2.40;;;;;;;19.56;42.48;101909.69;4992874;28;20283;-62
2021/10/17 03:26:40;;;;;;;4.15;1.98;;;;;;;19.56;42.34;101914.16;4993075;28;20037;-62
2021/10/17 03:29:06;;;;;;;5.63;2.78;;;;;;;19.55;42.44;101912.44;4992572;28;20026;-63
2021/10/17 03:31:43;;;;;;;4.38;2.22;;;;;;;19.53;42.64;101917.84;4993321;28;20161;-63
2021/10/17 03:34:09;;;;;;;6.35;2.72;;;;;;;19.52;42.67;101917.97;4993531;28;20030;-63
2021/10/17 03:37:00;;;;;;;4.63;2.20;;;;;;;19.52;42.63;101917.97;4992964;28;20121;-64
2021/10/17 03:39:25;;;;;;;5.85;2.40;;;;;;;19.51;42.58;101914.47;4992957;28;20125;-62
2021/10/17 03:41:50;;;;;;;5.07;2.67;;;;;;;19.52;42.65;101923.28;4993155;28;20113;-62
2021/10/17 03:44:16;;;;;;;5.63;2.33;;;;;;;19.52;42.38;101924.09;4992020;28;20307;-61
2021/10/17 03:46:44;;;;;;;5.13;2.50;;;;;;;19.52;42.53;101928.56;4993224;28;20362;-61
2021/10/17 03:49:09;;;;;;;4.90;2.17;;;;;;;19.50;42.47;101923.38;4992937;28;20299;-62
2021/10/17 03:51:34;;;;;;;5.60;2.33;;;;;;;19.49;42.66;101919.03;4992392;28;20386;-61
2021/10/17 03:54:00;;;;;;;5.70;2.33;;;;;;;19.49;42.38;101926.13;4992622;28;20132;-63
2021/10/17 03:56:25;;;;;;;5.32;2.42;;;;;;;19.49;42.60;101923.47;4992964;28;20039;-62
2021/10/17 03:58:50;;;;;;;4.20;2.17;;;;;;;19.48;42.72;101924.44;4992438;28;20030;-63
2021/10/17 04:01:16;;;;;;;4.95;2.22;;;;;;;19.48;42.47;101925.25;4992760;28;20018;-62
2021/10/17 04:03:41;;;;;;;5.80;2.17;;;;;;;19.48;42.87;101919.13;4993145;28;20073;-63
2021/10/17 04:06:09;;;;;;;4.40;2.10;;;;;;;19.50;42.86;101926.03;4991295;28;20346;-62
2021/10/17 04:08:35;;;;;;;5.85;2.22;;;;;;;19.56;42.84;101916.78;4992709;28;20480;-63
2021/10/17 04:11:00;;;;;;;6.35;2.30;;;;;;;19.61;42.72;101912.03;4992209;28;20042;-63
2021/10/17 04:13:28;;;;;;;4.67;2.20;;;;;;;19.69;42.30;101914.13;4992463;28;20053;-61
2021/10/17 04:15:53;;;;;;;3.83;1.90;;;;;;;19.73;42.27;101919.09;4992914;28;20346;-62
2021/10/17 04:18:18;;;;;;;4.30;2.00;;;;;;;19.78;42.15;101913.50;4991873;28;20137;-62
2021/10/17 04:20:44;;;;;;;3.95;2.13;;;;;;;19.82;42.14;101914.13;4992807;28;20268;-63
2021/10/17 04:23:09;;;;;;;3.83;1.93;;;;;;;19.84;41.89;101913.06;4992488;28;20478;-62
2021/10/17 04:25:34;;;;;;;5.57;1.98;;;;;;;19.85;41.84;101912.13;4991855;28;20787;-62
2021/10/17 04:28:03;;;;;;;4.30;1.85;;;;;;;19.86;41.81;101911.16;4992251;28;20035;-62
2021/10/17 04:30:28;;;;;;;4.70;1.90;;;;;;;19.86;41.74;101913.78;4992767;28;20053;-62
2021/10/17 04:32:54;;;;;;;4.82;2.03;;;;;;;19.85;41.81;101912.13;4992082;28;20459;-63
2021/10/17 04:35:19;;;;;;;5.68;1.85;;;;;;;19.86;41.63;101911.16;4992286;28;20028;-63
2021/10/17 04:37:45;;;;;;;4.03;1.90;;;;;;;19.85;41.66;101913.91;4992480;28;20046;-62
2021/10/17 04:40:13;;;;;;;3.88;2.15;;;;;;;19.85;41.82;101914.78;4991460;28;20043;-62
2021/10/17 04:42:39;;;;;;;4.75;2.10;;;;;;;19.85;41.58;101912.13;4992769;28;20030;-63
2021/10/17 04:45:06;;;;;;;4.15;2.05;;;;;;;19.84;41.62;101912.22;4992143;28;20027;-62
2021/10/17 04:47:31;;;;;;;5.13;2.30;;;;;;;19.84;41.55;101904.31;4991915;28;20109;-63
2021/10/17 04:49:57;;;;;;;4.40;2.00;;;;;;;19.85;41.66;101900.69;4992284;28;20458;-62
2021/10/17 04:52:22;;;;;;;5.68;2.38;;;;;;;19.84;41.69;101901.66;4992462;28;20051;-62
2021/10/17 04:54:49;;;;;;;3.70;1.83;;;;;;;19.83;41.77;101898.13;4991359;28;20046;-62
2021/10/17 04:57:14;;;;;;;4.90;2.35;;;;;;;19.84;41.66;101905.13;4992050;28;20038;-62
2021/10/17 04:59:42;;;;;;;3.97;1.92;;;;;;;19.82;41.79;101907.06;4992512;28;20072;-63
2021/10/17 05:02:07;;;;;;;4.63;2.03;;;;;;;19.82;41.75;101904.41;4991292;28;20027;-63
2021/10/17 05:04:35;;;;;;;5.07;2.20;;;;;;;19.81;41.61;101905.34;4992412;28;20491;-62
2021/10/17 05:07:01;;;;;;;5.40;2.25;;;;;;;19.80;41.75;101908.94;4992082;28;20429;-62
2021/10/17 05:09:27;;;;;;;3.72;1.90;;;;;;;19.79;41.68;101901.97;4991319;28;20073;-62
2021/10/17 05:11:52;;;;;;;4.88;2.30;;;;;;;19.79;41.75;101906.41;4992554;28;20033;-62
2021/10/17 05:14:17;;;;;;;5.47;2.25;;;;;;;19.80;41.91;101911.59;4992081;28;20053;-61
2021/10/17 05:16:43;;;;;;;5.10;2.55;;;;;;;19.84;41.92;101913.06;4992987;28;20053;-62
2021/10/17 05:19:11;;;;;;;4.03;2.00;;;;;;;19.87;41.75;101904.91;4995432;28;20049;-63
2021/10/17 05:21:36;;;;;;;5.10;1.92;;;;;;;19.91;41.96;101902.88;4995069;28;20279;-62
2021/10/17 05:24:02;;;;;;;5.15;1.90;;;;;;;19.94;42.10;101900.84;4995420;28;20034;-62
2021/10/17 05:26:27;;;;;;;3.92;1.80;;;;;;;20.00;42.63;101907.50;4996004;28;20057;-62
2021/10/17 05:29:01;;;;;;;4.75;2.00;;;;;;;20.05;43.18;101904.53;4995097;28;20390;-62
2021/10/17 05:31:27;;;;;;;3.70;2.00;;;;;;;20.13;43.41;101901.34;4995918;28;20023;-62
2021/10/17 05:33:52;;;;;;;4.53;2.05;;;;;;;20.18;43.23;101917.72;4995700;28;20022;-62
2021/10/17 05:36:17;;;;;;;5.72;2.95;;;;;;;20.23;43.13;101920.88;4994506;28;20072;-62
2021/10/17 05:38:43;;;;;;;4.53;2.20;;;;;;;20.27;43.24;101914.41;4995787;28;20486;-63
2021/10/17 05:41:11;;;;;;;4.43;1.95;;;;;;;20.33;43.23;101916.59;4995430;28;20038;-63
2021/10/17 05:43:37;;;;;;;4.18;1.83;;;;;;;20.40;42.93;101923.13;4995199;28;20029;-62
2021/10/17 05:46:03;;;;;;;4.85;1.80;;;;;;;20.45;42.83;101931.56;4995113;28;20393;-62
2021/10/17 05:48:28;;;;;;;5.00;1.70;;;;;;;20.51;42.78;101929.44;4995418;28;20034;-63
2021/10/17 05:50:53;;;;;;;3.58;1.70;;;;;;;20.56;42.53;101936.06;4994688;28;20030;-63
2021/10/17 05:53:19;;;;;;;4.53;1.77;;;;;;;20.63;42.50;101932.00;4994717;28;20081;-62
2021/10/17 05:55:47;;;;;;;3.93;1.87;;;;;;;20.70;42.39;101937.72;4995678;28;20356;-62
2021/10/17 05:58:12;;;;;;;4.15;1.75;;;;;;;20.75;42.12;101935.56;4994381;28;20291;-61
2021/10/17 06:00:40;;;;;;;3.57;1.53;;;;;;;20.80;42.05;101938.69;4995296;28;20032;-62
2021/10/17 06:03:07;;;;;;;4.88;1.80;;;;;;;20.83;42.07;101934.97;4994986;28;20276;-63
2021/10/17 06:05:32;;;;;;;4.47;1.88;;;;;;;20.87;42.26;101930.28;4994363;28;20026;-62
2021/10/17 06:07:59;;;;;;;4.00;1.88;;;;;;;20.88;42.11;101929.34;4994985;28;20514;-63
2021/10/17 06:10:24;;;;;;;4.15;1.80;;;;;;;20.87;41.94;101943.53;4995026;28;20045;-62
2021/10/17 06:12:50;;;;;;;4.30;1.75;;;;;;;20.84;42.22;101934.88;4994539;28;20109;-62
2021/10/17 06:15:15;;;;;;;4.20;1.80;;;;;;;20.87;42.01;101946.19;4994521;28;20038;-61
2021/10/17 06:17:40;;;;;;;2.85;1.50;;;;;;;20.92;41.82;101952.84;4994293;28;20080;-62
2021/10/17 06:20:06;;;;;;;3.77;1.73;;;;;;;20.98;42.04;101952.38;4994792;28;20045;-62
2021/10/17 06:22:35;;;;;;;4.68;2.08;;;;;;;21.00;41.77;101954.91;4995191;28;20140;-63
2021/10/17 06:25:00;;;;;;;4.03;1.83;;;;;;;20.97;41.93;101955.97;4994173;28;20212;-62
2021/10/17 06:27:26;;;;;;;3.78;1.77;;;;;;;20.96;42.12;101956.09;4995079;28;20109;-62
2021/10/17 06:29:51;;;;;;;3.25;1.67;;;;;;;20.95;41.74;101952.59;4993959;28;20117;-62
2021/10/17 06:32:16;;;;;;;3.75;1.55;;;;;;;20.95;41.89;101955.25;4993687;28;20035;-62
2021/10/17 06:34:41;;;;;;;4.32;1.85;;;;;;;20.97;42.04;101955.13;4994529;28;20026;-62
2021/10/17 06:37:07;;;;;;;4.30;1.80;;;;;;;21.00;41.93;101952.25;4994573;28;20030;-63
2021/10/17 06:39:32;;;;;;;3.70;1.70;;;;;;;21.06;41.80;101970.34;4993977;28;20487;-61
2021/10/17 06:41:57;;;;;;;4.80;2.25;;;;;;;21.09;41.76;101974.56;4994229;28;20028;-63
2021/10/17 06:44:23;;;;;;;3.92;1.77;;;;;;;21.11;41.75;101973.47;4994382;28;20042;-62
2021/10/17 06:46:50;;;;;;;3.50;1.60;;;;;;;21.10;41.54;101978.91;4993557;28;20034;-62
2021/10/17 06:49:16;;;;;;;4.88;1.85;;;;;;;21.09;41.96;101979.84;4993234;28;20053;-62
2021/10/17 06:51:41;;;;;;;4.88;1.70;;;;;;;21.07;41.87;101979.97;4994365;28;20030;-63
2021/10/17 06:54:06;;;;;;;4.25;1.80;;;;;;;21.02;41.29;101984.78;4993025;28;20057;-62
2021/10/17 06:56:34;;;;;;;3.55;2.10;;;;;;;20.99;41.71;101988.50;4994229;28;20105;-63
2021/10/17 06:59:00;;;;;;;4.47;1.75;;;;;;;21.02;41.93;101980.31;4993900;28;20142;-62
2021/10/17 07:01:28;;;;;;;3.65;1.70;;;;;;;21.07;41.74;101982.63;4993378;28;20494;-62
2021/10/17 07:03:56;;;;;;;4.15;1.80;;;;;;;21.09;41.72;101978.03;4993803;28;20026;-61
2021/10/17 07:06:21;;;;;;;4.45;1.77;;;;;;;21.12;41.64;101966.38;4994073;28;20033;-62
2021/10/17 07:08:46;;;;;;;4.75;1.95;;;;;;;21.13;41.38;101971.56;4993301;28;20042;-62
2021/10/17 07:11:12;;;;;;;4.47;2.10;;;;;;;21.13;41.45;101963.59;4993709;28;20022;-62
2021/10/17 07:13:37;;;;;;;4.47;1.83;;;;;;;21.14;41.83;101965.28;4993953;28;20029;-61
2021/10/17 07:16:03;;;;;;;4.10;2.03;;;;;;;21.14;41.71;101967.94;4992303;28;20359;-61
2021/10/17 07:18:28;;;;;;;3.58;1.73;;;;;;;21.17;41.82;101969.50;4993755;28;20288;-62
2021/10/17 07:20:53;;;;;;;4.32;1.90;;;;;;;21.18;41.54;101973.84;4993766;28;20080;-62
2021/10/17 07:23:19;;;;;;;4.88;1.92;;;;;;;21.22;41.38;101971.81;4993108;28;20038;-61
2021/10/17 07:25:45;;;;;;;5.43;1.88;;;;;;;21.24;41.31;101972.53;4993770;28;20027;-61
2021/10/17 07:28:11;;;;;;;3.40;1.63;;;;;;;21.21;41.35;101978.91;4992387;28;20053;-62
2021/10/17 07:30:45;;;;;;;4.50;1.90;;;;;;;21.21;41.32;101981.56;4993449;28;20022;-64
2021/10/17 07:33:10;;;;;;;3.63;1.90;;;;;;;21.20;41.47;101983.38;4993284;28;20041;-65
2021/10/17 07:35:35;;;;;;;5.57;2.08;;;;;;;21.22;41.19;101985.06;4992801;28;20117;-61
2021/10/17 07:38:04;;;;;;;4.27;1.77;;;;;;;21.22;41.54;101985.06;4992718;28;20037;-66
2021/10/17 07:40:29;;;;;;;4.75;2.22;;;;;;;21.20;41.62;101987.81;4993317;28;20303;-66
2021/10/17 07:42:54;;;;;;;4.75;1.83;;;;;;;21.20;41.82;101993.13;4992894;28;20022;-61
2021/10/17 07:45:20;;;;;;;4.10;1.80;;;;;;;21.22;41.88;102007.13;4993160;28;20034;-61
2021/10/17 07:47:45;;;;;;;3.90;1.70;;;;;;;21.27;41.91;102017.34;4993274;28;20038;-61
2021/10/17 07:50:13;;;;;;;5.88;1.90;;;;;;;21.30;41.45;102014.47;4992424;28;19918;-62
2021/10/17 07:52:38;;;;;;;4.68;2.05;;;;;;;21.32;41.21;102005.44;4993255;28;20026;-62
2021/10/17 07:55:05;;;;;;;4.85;2.30;;;;;;;21.33;41.76;102009.81;4992500;28;20043;-61
2021/10/17 07:57:53;;;;;;;4.13;1.95;;;;;;;21.36;41.46;102008.69;4992457;28;20486;-63
2021/10/17 08:00:24;;;;;;;3.85;1.77;;;;;;;21.37;41.63;102013.88;4992820;28;20134;-62
2021/10/17 08:02:49;;;;;;;4.07;1.85;;;;;;;21.33;41.59;102017.75;4993178;28;20106;-63
2021/10/17 08:05:15;;;;;;;5.95;2.35;;;;;;;21.32;41.62;102015.22;4992051;28;20439;-64
2021/10/17 08:07:41;;;;;;;5.03;2.05;;;;;;;21.28;41.85;102016.41;4993000;28;20419;-63
2021/10/17 08:10:07;;;;;;;5.32;2.10;;;;;;;21.20;41.95;102004.59;4993014;28;20049;-63
2021/10/17 08:12:33;;;;;;;5.05;2.10;;;;;;;21.17;42.10;102010.13;4994292;28;20445;-64
2021/10/17 08:14:58;;;;;;;5.47;2.17;;;;;;;21.17;42.01;102007.47;4993187;28;20025;-65
2021/10/17 08:17:23;;;;;;;5.67;2.30;;;;;;;21.17;41.92;102009.25;4990832;28;20058;-61
2021/10/17 08:19:51;;;;;;;5.28;2.70;;;;;;;21.22;42.55;102006.25;4993185;28;20279;-60
2021/10/17 08:22:16;;;;;;;6.50;1.98;;;;;;;21.27;42.99;102004.97;4992685;28;20026;-62
2021/10/17 08:24:41;;;;;;;6.55;2.38;;;;;;;21.33;43.42;102008.94;4992583;28;20038;-61
2021/10/17 08:27:07;;;;;;;5.75;2.20;;;;;;;21.35;43.64;102013.16;4992801;28;20048;-61
2021/10/17 08:29:32;;;;;;;5.97;2.60;;;;;;;21.28;42.24;102006.63;4992811;28;20029;-63
2021/10/17 08:31:57;;;;;;;7.68;3.00;;;;;;;21.24;43.35;102006.97;4991557;28;20446;-62
2021/10/17 08:34:22;;;;;;;7.32;2.70;;;;;;;21.22;44.11;102016.88;4991948;28;20019;-61
2021/10/17 08:36:48;;;;;;;6.47;2.25;;;;;;;21.22;44.47;102009.78;4992502;28;20031;-61
2021/10/17 08:39:13;;;;;;;7.07;3.10;;;;;;;21.20;44.29;102016.97;4990880;28;20041;-60
2021/10/17 08:41:38;;;;;;;7.10;2.38;;;;;;;21.23;44.41;102008.81;4992254;28;20019;-62
2021/10/17 08:44:07;;;;;;;7.25;3.33;;;;;;;21.26;44.30;102010.38;4991506;28;20026;-60
2021/10/17 08:46:33;;;;;;;5.45;2.55;;;;;;;21.28;44.30;102003.97;4992287;28;20019;-62
2021/10/17 08:49:02;;;;;;;6.68;2.88;;;;;;;21.32;44.42;102009.91;4992581;28;20038;-63
2021/10/17 08:51:29;;;;;;;5.75;2.78;;;;;;;21.34;44.37;102008.81;4993478;28;20030;-66
2021/10/17 08:53:55;;;;;;;6.28;2.80;;;;;;;21.39;43.89;102008.47;4995692;28;20054;-66
2021/10/17 08:56:20;;;;;;;8.20;2.47;;;;;;;21.44;44.22;102011.59;4996724;28;20347;-66
2021/10/17 08:58:45;;;;;;;7.03;2.58;;;;;;;21.46;43.87;102004.41;4996672;28;20027;-64
2021/10/17 09:01:13;;;;;;;5.63;2.55;;;;;;;21.47;43.80;102007.88;4996060;28;20032;-64
2021/10/17 09:03:39;;;;;;;5.57;2.40;;;;;;;21.46;43.86;102007.03;4997961;28;20158;-65
2021/10/17 09:06:15;;;;;;;7.63;2.80;;;;;;;21.46;43.75;102003.53;4996443;28;20474;-63
2021/10/17 09:08:44;;;;;;;6.85;2.47;;;;;;;21.47;43.72;102005.22;4996898;28;20030;-64
2021/10/17 09:11:11;;;;;;;8.50;2.63;;;;;;;21.48;43.72;102004.28;4996060;28;20038;-61
2021/10/17 09:13:55;;;;;;;5.60;2.47;;;;;;;21.47;43.63;102005.22;4995782;28;20080;-64
2021/10/17 09:16:23;;;;;;;4.88;2.42;;;;;;;21.48;43.73;102006.94;4996045;28;20054;-65
2021/10/17 09:19:05;;;;;;;6.75;2.47;;;;;;;21.46;43.70;102012.34;4996399;28;20042;-65
2021/10/17 09:21:33;;;;;;;5.50;2.50;;;;;;;21.46;43.15;102003.53;4995580;28;20101;-67
2021/10/17 09:24:01;;;;;;;7.15;2.50;;;;;;;21.43;43.57;102009.06;4995815;28;20478;-66
2021/10/17 09:26:27;;;;;;;8.27;2.38;;;;;;;21.43;43.35;102003.75;4996795;28;20018;-63
2021/10/17 09:28:52;;;;;;;9.48;2.60;;;;;;;21.47;43.51;102011.38;4996291;28;20089;-63
2021/10/17 09:31:20;;;;;;;8.27;2.30;;;;;;;21.50;43.29;102007.69;4998114;28;20494;-67
2021/10/17 09:33:58;;;;;;;6.80;2.42;;;;;;;21.53;43.28;102012.75;4998168;28;20035;-66
2021/10/17 09:36:31;;;;;;;5.47;2.17;;;;;;;21.53;42.98;102008.28;4997704;28;20510;-65
2021/10/17 09:39:11;;;;;;;4.75;2.22;;;;;;;21.53;43.27;102002.97;4994570;28;20022;-69
2021/10/17 09:41:48;;;;;;;14.13;2.55;;;;;;;21.52;43.21;102005.75;4996903;28;20398;-68
2021/10/17 09:44:14;;;;;;;6.20;2.35;;;;;;;21.51;43.31;102009.38;4994876;28;20026;-67
2021/10/17 09:46:59;;;;;;;5.88;2.17;;;;;;;21.48;43.34;102004.28;4995503;28;20038;-70
2021/10/17 09:49:24;;;;;;;7.22;2.50;;;;;;;21.46;43.53;102003.53;4993730;28;20039;-65
2021/10/17 09:52:08;;;;;;;5.55;2.15;;;;;;;21.42;43.33;101999.44;4995257;28;20030;-64
2021/10/17 09:54:33;;;;;;;4.07;1.67;;;;;;;21.42;43.42;102007.41;4995015;28;20046;-65
2021/10/17 09:57:06;;;;;;;5.35;2.08;;;;;;;21.40;43.51;102007.50;4994411;28;20303;-63
2021/10/17 09:59:31;;;;;;;6.90;2.35;;;;;;;21.37;43.58;102010.41;4995178;28;20029;-63
2021/10/17 10:01:57;;;;;;;6.95;2.60;;;;;;;21.36;43.25;102001.63;4994873;28;20022;-60
2021/10/17 10:04:24;;;;;;;7.13;2.55;;;;;;;21.36;43.34;102011.34;4993472;28;20041;-63
2021/10/17 10:06:50;;;;;;;6.28;2.20;;;;;;;21.31;43.36;102006.41;4994539;28;20042;-63
2021/10/17 10:09:20;;;;;;;4.65;2.05;;;;;;;21.30;43.47;102001.22;4994951;28;20041;-63
2021/10/17 10:11:46;;;;;;;4.68;2.05;;;;;;;21.31;43.43;102006.41;4994726;28;20058;-63
2021/10/17 10:14:14;;;;;;;4.47;1.80;;;;;;;21.31;43.53;102017.00;4994639;28;20034;-64
2021/10/17 10:16:41;;;;;;;6.30;2.20;;;;;;;21.34;43.58;102011.47;4995275;28;20126;-63
2021/10/17 10:19:09;;;;;;;6.30;2.08;;;;;;;21.37;43.62;102008.59;4993171;28;20026;-63
2021/10/17 10:21:36;;;;;;;8.10;2.45;;;;;;;21.45;43.28;102013.31;4995027;28;20567;-60
2021/10/17 10:24:10;;;;;;;6.18;2.10;;;;;;;21.52;43.23;102011.03;4994964;28;20027;-59
2021/10/17 10:26:36;;;;;;;6.75;2.15;;;;;;;21.59;43.34;102011.41;4995332;28;20451;-61
2021/10/17 10:29:03;;;;;;;5.82;1.92;;;;;;;21.63;42.99;102013.69;4995439;28;20065;-61
2021/10/17 10:31:52;;;;;;;4.70;2.00;;;;;;;21.67;42.88;102015.16;4994501;28;20048;-63
2021/10/17 10:34:23;;;;;;;6.60;2.05;;;;;;;21.69;42.69;102012.41;4994733;28;20042;-62
2021/10/17 10:36:51;;;;;;;4.75;2.00;;;;;;;21.68;42.74;102016.88;4995129;28;20130;-63
2021/10/17 10:39:33;;;;;;;4.75;1.92;;;;;;;21.66;42.79;102012.63;4993830;28;20041;-63
2021/10/17 10:42:14;;;;;;;5.60;1.98;;;;;;;21.63;42.80;102012.88;4994445;28;20026;-62
2021/10/17 10:44:43;;;;;;;5.20;1.90;;;;;;;21.62;42.92;102017.34;4994692;28;20030;-64
2021/10/17 10:47:24;;;;;;;5.70;2.10;;;;;;;21.58;43.12;102012.41;4993694;28;20046;-64
2021/10/17 10:49:51;;;;;;;5.10;1.90;;;;;;;21.58;42.92;102007.09;4994975;28;20034;-63
2021/10/17 10:52:28;;;;;;;4.40;1.98;;;;;;;21.60;43.17;102016.59;4993820;28;20049;-62
2021/10/17 10:55:38;;;;;;;4.50;1.90;;;;;;;21.61;43.19;102013.00;4994368;28;20072;-61
2021/10/17 10:58:25;;;;;;;4.95;1.90;;;;;;;21.63;42.99;102011.06;4988603;28;20046;-64
2021/10/17 11:00:52;;;;;;;5.18;2.10;;;;;;;21.67;43.16;102014.34;4994023;28;20516;-63
2021/10/17 11:03:19;;;;;;;5.35;2.03;;;;;;;21.70;43.11;102004.31;4993968;28;20471;-62
2021/10/17 11:06:06;;;;;;;6.03;2.17;;;;;;;21.77;42.86;101999.38;4995225;28;20034;-65
2021/10/17 11:08:37;;;;;;;4.65;1.73;;;;;;;21.79;42.81;102002.72;4994119;28;20039;-64
2021/10/17 11:11:02;;;;;;;5.32;1.83;;;;;;;21.79;42.61;102009.88;4994262;28;20026;-64
2021/10/17 11:13:42;;;;;;;4.65;2.10;;;;;;;21.78;42.70;102001.06;4993542;28;20053;-65
2021/10/17 11:16:18;;;;;;;5.55;2.00;;;;;;;21.77;42.66;101990.56;4993367;28;20022;-62
2021/10/17 11:18:49;;;;;;;5.72;2.33;;;;;;;21.78;42.75;101990.44;4994509;28;20023;-65
2021/10/17 11:21:15;;;;;;;4.22;1.80;;;;;;;21.78;42.81;101989.59;4993268;28;20046;-62
2021/10/17 11:23:41;;;;;;;3.45;1.75;;;;;;;21.78;42.37;101984.28;4994461;28;20447;-63
2021/10/17 11:26:12;;;;;;;4.55;1.80;;;;;;;21.77;42.93;101987.91;4993881;28;20057;-63